createdAt,value
2023-04-07T00:02:35.413Z,93.44
2023-04-07T00:06:34.361Z,93.48
2023-04-07T00:10:32.398Z,93.48
2023-04-07T00:14:30.360Z,93.49
2023-04-07T00:18:28.503Z,93.57
2023-04-07T00:22:26.398Z,93.67
2023-04-07T00:26:24.521Z,93.62
2023-04-07T00:30:23.504Z,93.48
2023-04-07T00:34:21.372Z,93.10
2023-04-07T00:38:19.366Z,92.92
2023-04-07T00:42:18.342Z,92.96
2023-04-07T00:46:16.314Z,93.08
2023-04-07T00:50:14.530Z,93.13
2023-04-07T00:54:12.302Z,93.08
2023-04-07T00:58:11.400Z,92.89
2023-04-07T01:02:22.527Z,92.80
2023-04-07T01:06:22.308Z,92.70
2023-04-07T01:10:21.301Z,92.81
2023-04-07T01:14:26.290Z,92.91
2023-04-07T01:18:36.295Z,92.91
2023-04-07T01:22:41.352Z,92.97
2023-04-07T01:26:49.271Z,92.98
2023-04-07T01:30:50.265Z,93.05
2023-04-07T01:34:49.255Z,93.10
2023-04-07T01:38:48.270Z,93.29
2023-04-07T01:42:48.362Z,92.85
2023-04-07T01:46:46.330Z,92.52
2023-04-07T01:50:44.313Z,92.50
2023-04-07T01:54:43.371Z,92.88
2023-04-07T01:58:41.297Z,93.40
2023-04-07T02:02:41.512Z,93.45
2023-04-07T02:06:45.222Z,93.57
2023-04-07T02:10:44.252Z,93.74
2023-04-07T02:14:43.270Z,93.91
2023-04-07T02:18:42.220Z,94.14
2023-04-07T02:22:40.193Z,94.20
2023-04-07T02:26:38.181Z,94.34
2023-04-07T02:30:36.202Z,94.46
2023-04-07T02:34:34.272Z,94.63
2023-04-07T02:38:32.250Z,94.68
2023-04-07T02:42:30.233Z,94.74
2023-04-07T02:46:29.317Z,94.79
2023-04-07T02:50:27.206Z,94.82
2023-04-07T02:54:25.184Z,94.82
2023-04-07T02:58:24.273Z,94.86
2023-04-07T03:02:22.529Z,94.92
2023-04-07T03:06:20.142Z,94.94
2023-04-07T03:10:25.194Z,94.99
2023-04-07T03:14:23.269Z,95.03
2023-04-07T03:18:21.100Z,95.08
2023-04-07T03:22:24.162Z,95.14
2023-04-07T03:26:22.223Z,95.17
2023-04-07T03:30:22.151Z,95.20
2023-04-07T03:34:20.132Z,95.21
2023-04-07T03:38:18.210Z,95.20
2023-04-07T03:42:18.064Z,95.23
2023-04-07T03:46:20.169Z,95.26
2023-04-07T03:50:18.064Z,95.31
2023-04-07T03:54:22.070Z,95.34
2023-04-07T03:58:20.054Z,95.36
2023-04-07T04:02:18.304Z,95.38
2023-04-07T04:06:17.052Z,95.40
2023-04-07T04:10:15.114Z,95.45
2023-04-07T04:14:15.173Z,95.48
2023-04-07T04:18:17.250Z,95.52
2023-04-07T04:22:16.024Z,95.57
2023-04-07T04:26:17.098Z,95.61
2023-04-07T04:30:15.084Z,95.63
2023-04-07T04:34:19.100Z,95.64
2023-04-07T04:38:19.134Z,95.66
2023-04-07T04:42:40.054Z,95.68
2023-04-07T04:46:38.056Z,95.69
2023-04-07T04:50:36.019Z,95.70
2023-04-07T04:54:36.028Z,95.71
2023-04-07T04:58:35.103Z,95.70
2023-04-07T05:02:33.095Z,95.69
2023-04-07T05:06:31.022Z,95.67
2023-04-07T05:10:32.050Z,95.64
2023-04-07T05:14:30.968Z,95.61
2023-04-07T05:18:30.962Z,95.57
2023-04-07T05:22:29.210Z,95.53
2023-04-07T05:26:35.025Z,95.50
2023-04-07T05:30:33.092Z,95.48
2023-04-07T05:34:30.939Z,95.45
2023-04-07T05:38:28.948Z,95.43
2023-04-07T05:42:32.968Z,95.38
2023-04-07T05:46:32.075Z,95.34
2023-04-07T05:50:30.051Z,95.31
2023-04-07T05:54:29.926Z,95.27
2023-04-07T05:58:28.988Z,95.26
2023-04-07T06:02:06.725Z,95.22
2023-04-07T06:05:31.441Z,95.18
2023-04-07T06:08:55.570Z,95.13
2023-04-07T06:12:20.646Z,95.10
2023-04-07T06:15:45.892Z,95.09
2023-04-07T06:19:09.876Z,95.09
2023-04-07T06:22:33.861Z,95.05
2023-04-07T06:25:58.046Z,95.01
2023-04-07T06:29:22.124Z,94.96
2023-04-07T06:32:47.023Z,94.94
2023-04-07T06:36:11.109Z,94.92
2023-04-07T06:39:35.098Z,94.86
2023-04-07T06:42:59.071Z,94.82
2023-04-07T06:46:33.242Z,94.78
2023-04-07T06:49:57.209Z,94.77
2023-04-07T06:53:21.059Z,94.76
2023-04-07T06:56:45.301Z,94.72
2023-04-07T07:00:10.220Z,94.68
2023-04-07T07:03:34.404Z,94.64
2023-04-07T07:06:58.324Z,94.60
2023-04-07T07:10:22.860Z,94.57
2023-04-07T07:13:48.149Z,94.54
2023-04-07T07:17:12.054Z,94.50
2023-04-07T07:20:35.907Z,94.48
2023-04-07T07:23:59.779Z,94.47
2023-04-07T07:27:23.693Z,94.45
2023-04-07T07:30:47.573Z,94.44
2023-04-07T07:34:11.398Z,94.40
2023-04-07T07:37:35.988Z,94.32
2023-04-07T07:40:59.715Z,94.19
2023-04-07T07:44:23.912Z,94.12
2023-04-07T07:47:47.876Z,93.97
2023-04-07T07:51:12.127Z,93.87
2023-04-07T07:54:36.055Z,93.78
2023-04-07T07:57:59.954Z,93.73
2023-04-07T08:01:23.911Z,93.74
2023-04-07T08:04:48.106Z,93.71
2023-04-07T08:08:12.133Z,93.60
2023-04-07T08:11:36.154Z,93.55
2023-04-07T08:15:00.127Z,93.39
2023-04-07T08:18:25.409Z,93.13
2023-04-07T08:21:49.184Z,92.43
2023-04-07T08:25:13.167Z,91.94
2023-04-07T08:28:39.566Z,91.60
2023-04-07T08:32:03.587Z,90.77
2023-04-07T08:35:27.493Z,89.90
2023-04-07T08:38:51.473Z,89.46
2023-04-07T08:42:17.761Z,88.07
2023-04-07T08:45:43.506Z,87.90
2023-04-07T08:49:14.050Z,87.54
2023-04-07T08:52:57.898Z,84.57
2023-04-07T08:56:22.056Z,81.33
2023-04-07T08:59:49.129Z,80.14
2023-04-07T09:03:13.265Z,80.31
2023-04-07T09:06:39.781Z,79.27
2023-04-07T09:10:04.702Z,75.43
2023-04-07T09:13:28.577Z,74.44
2023-04-07T09:16:52.539Z,74.47
2023-04-07T09:20:16.466Z,73.02
2023-04-07T09:23:42.267Z,73.25
2023-04-07T09:27:17.531Z,72.45
2023-04-07T09:30:54.274Z,72.59
2023-04-07T09:34:43.285Z,72.08
2023-04-07T09:38:11.361Z,70.34
2023-04-07T09:41:35.282Z,72.61
2023-04-07T09:45:02.852Z,73.01
2023-04-07T09:48:26.949Z,73.49
2023-04-07T09:52:07.811Z,73.31
2023-04-07T09:55:34.043Z,73.57
2023-04-07T09:58:58.813Z,75.79
2023-04-07T10:02:23.848Z,73.11
2023-04-07T10:05:48.612Z,73.05
2023-04-07T10:09:12.997Z,72.65
2023-04-07T10:12:39.308Z,74.42
2023-04-07T10:16:08.609Z,75.33
2023-04-07T10:19:34.710Z,76.12
2023-04-07T10:23:09.512Z,76.50
2023-04-07T10:26:37.020Z,77.50
2023-04-07T10:30:02.402Z,78.77
2023-04-07T10:33:46.644Z,79.35
2023-04-07T10:37:14.327Z,79.51
2023-04-07T10:40:39.197Z,79.74
2023-04-07T10:44:04.267Z,79.76
2023-04-07T10:47:28.369Z,79.51
2023-04-07T10:51:08.542Z,79.49
2023-04-07T10:54:32.500Z,78.98
2023-04-07T10:58:15.237Z,78.78
2023-04-07T11:01:39.092Z,78.16
2023-04-07T11:05:03.886Z,78.15
2023-04-07T11:08:35.061Z,77.96
2023-04-07T11:11:58.938Z,77.36
2023-04-07T11:15:23.508Z,75.99
2023-04-07T11:18:49.026Z,75.00
2023-04-07T11:25:48.895Z,73.81
2023-04-07T11:29:13.640Z,73.75
2023-04-07T11:32:38.537Z,72.58
2023-04-07T11:36:04.041Z,70.91
2023-04-07T11:39:31.262Z,71.36
2023-04-07T11:42:56.691Z,72.00
2023-04-07T11:46:21.740Z,71.44
2023-04-07T11:49:47.440Z,71.46
2023-04-07T11:53:11.839Z,72.13
2023-04-07T11:56:46.757Z,72.09
2023-04-07T12:00:13.564Z,71.57
2023-04-07T12:03:39.138Z,71.25
2023-04-07T12:07:13.097Z,71.80
2023-04-07T12:10:37.019Z,70.44
2023-04-07T12:14:02.219Z,68.78
2023-04-07T12:17:28.313Z,69.81
2023-04-07T12:20:52.633Z,71.27
2023-04-07T12:24:17.108Z,72.20
2023-04-07T12:27:43.661Z,72.84
2023-04-07T12:31:08.268Z,73.29
2023-04-07T12:34:32.555Z,72.77
2023-04-07T12:37:56.892Z,72.51
2023-04-07T12:41:20.783Z,72.51
2023-04-07T12:44:44.604Z,70.67
2023-04-07T12:48:08.599Z,71.27
2023-04-07T12:51:33.594Z,70.86
2023-04-07T12:54:58.686Z,69.07
2023-04-07T12:58:22.694Z,68.77
2023-04-07T13:01:47.817Z,70.12
2023-04-07T13:05:14.132Z,69.59
2023-04-07T13:08:38.113Z,69.62
2023-04-07T13:12:02.298Z,69.21
2023-04-07T13:15:26.385Z,69.41
2023-04-07T13:18:50.215Z,70.84
2023-04-07T13:22:18.276Z,71.46
2023-04-07T13:25:45.596Z,72.27
2023-04-07T13:29:09.387Z,72.22
2023-04-07T13:32:55.337Z,72.62
2023-04-07T13:36:53.415Z,72.76
2023-04-07T13:40:51.357Z,70.85
2023-04-07T13:44:52.388Z,71.21
2023-04-07T13:48:50.330Z,70.30
2023-04-07T13:52:48.366Z,67.82
2023-04-07T13:56:47.302Z,66.60
2023-04-07T14:00:45.326Z,64.41
2023-04-07T14:04:43.425Z,65.85
2023-04-07T14:08:42.327Z,66.58
2023-04-07T14:12:41.405Z,67.61
2023-04-07T14:16:39.381Z,68.91
2023-04-07T14:20:37.311Z,70.27
2023-04-07T14:24:35.296Z,71.04
2023-04-07T14:28:33.268Z,71.17
2023-04-07T14:32:31.425Z,71.48
2023-04-07T14:36:30.253Z,71.80
2023-04-07T14:40:28.322Z,72.41
2023-04-07T14:44:26.465Z,72.50
2023-04-07T14:48:25.256Z,72.55
2023-04-07T14:52:23.339Z,72.15
2023-04-07T14:56:21.274Z,70.92
2023-04-07T15:00:20.248Z,70.55
2023-04-07T15:04:18.345Z,71.25
2023-04-07T15:08:16.246Z,71.66
2023-04-07T15:12:14.268Z,71.83
2023-04-07T15:16:20.389Z,71.97
2023-04-07T15:20:19.233Z,72.14
2023-04-07T15:24:17.250Z,71.74
2023-04-07T15:28:15.261Z,71.98
2023-04-07T15:32:13.265Z,72.07
2023-04-07T15:36:11.278Z,72.04
2023-04-07T15:40:09.240Z,71.55
2023-04-07T15:44:07.252Z,71.77
2023-04-07T15:48:07.273Z,72.34
2023-04-07T15:52:05.207Z,73.05
2023-04-07T15:56:03.185Z,73.09
2023-04-07T16:00:01.181Z,73.08
2023-04-07T16:03:59.370Z,72.98
2023-04-07T16:07:57.240Z,72.89
2023-04-07T16:11:55.223Z,72.81
2023-04-07T16:15:53.191Z,72.18
2023-04-07T16:19:51.163Z,72.61
2023-04-07T16:23:49.443Z,72.84
2023-04-07T16:27:47.290Z,73.10
2023-04-07T16:31:46.182Z,73.33
2023-04-07T16:35:44.144Z,73.60
2023-04-07T16:39:42.195Z,74.27
2023-04-07T16:43:40.165Z,74.86
2023-04-07T16:47:39.301Z,75.19
2023-04-07T16:51:37.081Z,75.47
2023-04-07T16:55:35.235Z,75.52
2023-04-07T16:59:33.119Z,76.23
2023-04-07T17:03:31.323Z,76.54
2023-04-07T17:07:29.083Z,76.75
2023-04-07T17:11:28.127Z,76.54
2023-04-07T17:15:27.172Z,76.58
2023-04-07T17:19:25.146Z,77.22
2023-04-07T17:23:23.024Z,77.51
2023-04-07T17:27:21.200Z,77.17
2023-04-07T17:31:19.077Z,77.03
2023-04-07T17:35:17.268Z,76.77
2023-04-07T17:39:16.159Z,76.52
2023-04-07T17:43:14.052Z,76.41
2023-04-07T17:47:12.024Z,76.43
2023-04-07T17:51:10.098Z,76.42
2023-04-07T17:55:08.031Z,76.25
2023-04-07T17:59:06.074Z,75.65
2023-04-07T18:03:04.206Z,75.81
2023-04-07T18:07:02.028Z,75.78
2023-04-07T18:10:59.997Z,75.87
2023-04-07T18:14:58.073Z,75.64
2023-04-07T18:18:56.053Z,75.70
2023-04-07T18:22:54.044Z,75.65
2023-04-07T18:26:51.993Z,75.56
2023-04-07T18:30:50.020Z,75.08
2023-04-07T18:34:47.999Z,75.00
2023-04-07T18:38:46.054Z,74.81
2023-04-07T18:42:44.038Z,74.86
2023-04-07T18:46:42.090Z,75.01
2023-04-07T18:51:06.964Z,75.10
2023-04-07T18:55:05.062Z,75.05
2023-04-07T18:59:02.943Z,74.50
2023-04-07T19:03:01.246Z,74.58
2023-04-07T19:06:59.997Z,74.48
2023-04-07T19:10:57.969Z,74.57
2023-04-07T19:14:55.974Z,74.71
2023-04-07T19:18:53.985Z,75.00
2023-04-07T19:22:53.011Z,75.03
2023-04-07T19:26:50.941Z,74.90
2023-04-07T19:30:48.931Z,74.26
2023-04-07T19:34:46.969Z,74.28
2023-04-07T19:38:44.888Z,74.17
2023-04-07T19:42:45.050Z,73.58
2023-04-07T19:46:42.873Z,73.29
2023-04-07T19:50:47.919Z,73.28
2023-04-07T19:54:45.948Z,73.29
2023-04-07T19:58:44.950Z,73.24
2023-04-07T20:02:43.007Z,73.23
2023-04-07T20:06:42.864Z,73.21
2023-04-07T20:10:40.936Z,73.18
2023-04-07T20:14:38.859Z,73.00
2023-04-07T20:18:37.835Z,73.07
2023-04-07T20:22:35.863Z,73.27
2023-04-07T20:26:33.827Z,73.29
2023-04-07T20:30:31.889Z,73.31
2023-04-07T20:34:29.845Z,72.55
2023-04-07T20:38:27.976Z,72.59
2023-04-07T20:42:25.901Z,72.75
2023-04-07T20:46:23.913Z,72.84
2023-04-07T20:50:21.851Z,72.96
2023-04-07T20:54:19.969Z,73.01
2023-04-07T20:58:17.833Z,73.04
2023-04-07T21:02:16.238Z,73.07
2023-04-07T21:06:13.734Z,72.97
2023-04-07T21:10:11.890Z,72.54
2023-04-07T21:14:09.831Z,72.04
2023-04-07T21:18:07.981Z,72.11
2023-04-07T21:22:05.770Z,72.34
2023-04-07T21:26:03.761Z,72.55
2023-04-07T21:30:01.848Z,72.76
2023-04-07T21:33:59.818Z,72.99
2023-04-07T21:37:57.745Z,73.17
2023-04-07T21:41:55.778Z,73.37
2023-04-07T21:45:53.719Z,73.52
2023-04-07T21:49:53.037Z,73.65
2023-04-07T21:53:50.847Z,73.73
2023-04-07T21:57:49.797Z,73.86
2023-04-07T22:01:47.816Z,74.09
2023-04-07T22:05:45.815Z,74.20
2023-04-07T22:09:43.781Z,74.48
2023-04-07T22:13:41.693Z,74.69
2023-04-07T22:17:39.807Z,74.84
2023-04-07T22:21:37.719Z,75.32
2023-04-07T22:25:35.670Z,75.99
2023-04-07T22:29:33.789Z,76.18
2023-04-07T22:33:31.769Z,76.48
2023-04-07T22:37:29.692Z,77.00
2023-04-07T22:41:27.627Z,77.34
2023-04-07T22:45:25.660Z,77.26
2023-04-07T22:49:23.673Z,77.45
2023-04-07T22:53:21.684Z,77.86
2023-04-07T22:57:19.618Z,78.27
2023-04-07T23:01:17.757Z,78.38
2023-04-07T23:05:16.709Z,78.87
2023-04-07T23:09:14.693Z,79.17
2023-04-07T23:13:15.059Z,79.76
2023-04-07T23:17:12.602Z,79.96
2023-04-07T23:21:10.570Z,80.07
2023-04-07T23:25:08.580Z,80.39
2023-04-07T23:29:06.636Z,80.58
2023-04-07T23:33:04.751Z,80.49
2023-04-07T23:37:02.597Z,80.61
2023-04-07T23:41:00.571Z,80.87
2023-04-07T23:44:59.688Z,80.81
2023-04-07T23:48:57.653Z,81.57
2023-04-07T23:52:55.630Z,82.33
2023-04-07T23:56:53.616Z,83.11
